< < Back
Terminal Aerodrome Forecast


Current Version              Previous Versions:   1  2  3  4  5  6  7  8  9  

Terminal Aerodrome Forecast

794
FTUS42 KGSP 080539
TAFAVL
TAF
KAVL 080539Z 0806/0906 30003KT P6SM SCT120
     FM081200 VRB03KT P6SM VCSH OVC070
     FM081500 22003KT P6SM SCT040 OVC060 PROB30 0818/0824 4SM
      -SHRASN OVC040
     FM090000 30005KT P6SM VCSH BKN045=



Latest METAR

249
SAUS70 KWBC 090700 RRE
MTRAVL
METAR KAVL 090654Z AUTO 34010KT 9SM -SN FEW050 M01/M11 A2965 RMK AO2
SLP041 P0000 T10111106


USA.gov is the U.S. government's official web portal to all federal, state and local government web resources and services.